Time;durP1;ratioP1;P1;durP2;ratioP2;P2;SDS_P1;SDS_P2;PMS_P1;PMS_P2;Temp;Humidity;BMP_temperature;BMP_pressure;BME280_temperature;BME280_humidity;BME280_pressure;Samples;Min_cycle;Max_cycle;Signal;HPM_P1;HPM_P2
2023/10/19 00:02:15;;;;;;;;;;;;;;;30.15;77.79;101029.78;5041560;28;66995;-41
2023/10/19 00:04:45;;;;;;;;;;;;;;;30.19;77.23;101041.84;5030020;28;69475;-40
2023/10/19 00:07:15;;;;;;;;;;;;;;;30.20;77.85;101048.94;5040315;28;66834;-40
2023/10/19 00:09:48;;;;;;;;;;;;;;;30.24;77.63;101044.78;5029330;28;70185;-40
2023/10/19 00:12:21;;;;;;;;;;;;;;;30.26;78.02;101048.09;5040993;28;66603;-42
2023/10/19 00:14:52;;;;;;;;;;;;;;;30.26;78.14;101053.50;5040956;28;70222;-41
2023/10/19 00:17:23;;;;;;;;;;;;;;;30.23;79.72;101053.94;5039471;28;66629;-41
2023/10/19 00:22:41;;;;;;;;;;;;;;;30.22;80.32;101057.66;5037845;28;66486;-40
2023/10/19 00:25:13;;;;;;;;;;;;;;;30.22;79.96;101068.50;5040362;28;69846;-40
2023/10/19 00:27:43;;;;;;;;;;;;;;;30.19;80.78;101063.47;5040890;28;66039;-40
2023/10/19 00:30:12;;;;;;;;;;;;;;;30.22;80.98;101060.38;5038254;28;69958;-42
2023/10/19 00:32:42;;;;;;;;;;;;;;;30.24;80.61;101061.00;5041575;28;66607;-40
2023/10/19 00:35:27;;;;;;;;;;;;;;;30.26;80.14;101072.47;5053176;28;70377;-41
2023/10/19 00:38:12;;;;;;;;;;;;;;;30.29;80.21;101063.09;5052512;28;66814;-39
2023/10/19 00:40:47;;;;;;;;;;;;;;;30.32;79.47;101067.25;5033833;28;70410;-39
2023/10/19 00:43:26;;;;;;;;;;;;;;;30.33;79.34;101071.59;5039058;28;66735;-41
2023/10/19 00:45:56;;;;;;;;;;;;;;;30.36;78.55;101063.88;5055882;28;69871;-40
2023/10/19 00:48:27;;;;;;;;;;;;;;;30.38;76.87;101053.69;5036551;28;66796;-39
2023/10/19 00:51:06;;;;;;;;;;;;;;;30.44;76.07;101060.13;5047321;28;69748;-40
2023/10/19 00:53:39;;;;;;;;;;;;;;;30.48;75.17;101066.78;5039277;28;66723;-39
2023/10/19 00:56:09;;;;;;;;;;;;;;;30.50;74.35;101070.91;5037530;28;70482;-40
2023/10/19 00:58:41;;;;;;;;;;;;;;;30.56;73.97;101071.94;5040901;28;66277;-40
2023/10/19 01:01:10;;;;;;;;;;;;;;;30.58;73.82;101066.31;5043066;28;69473;-41
2023/10/19 01:03:40;;;;;;;;;;;;;;;30.61;73.47;101071.31;5036236;28;66854;-41
2023/10/19 01:06:12;;;;;;;;;;;;;;;30.63;73.15;101075.47;5036474;28;70287;-40
2023/10/19 01:08:42;;;;;;;;;;;;;;;30.65;73.12;101081.50;5045316;28;66106;-41
2023/10/19 01:11:15;;;;;;;;;;;;;;;30.68;72.67;101089.19;5037092;28;70156;-40
2023/10/19 01:13:51;;;;;;;;;;;;;;;30.69;72.97;101087.31;5039612;28;66224;-40
2023/10/19 01:16:21;;;;;;;;;;;;;;;30.71;72.65;101088.78;5046095;28;70651;-41
2023/10/19 01:18:53;;;;;;;;;;;;;;;30.75;72.32;101099.16;5004918;28;66383;-39
2023/10/19 01:21:37;;;;;;;;;;;;;;;30.76;72.37;101095.41;5056646;28;69700;-40
2023/10/19 01:24:08;;;;;;;;;;;;;;;30.78;72.36;101101.44;5034067;28;66096;-40
2023/10/19 01:26:38;;;;;;;;;;;;;;;30.81;72.16;101098.34;5032462;28;69091;-39
2023/10/19 01:29:19;;;;;;;;;;;;;;;30.81;71.87;101096.44;5039863;28;66106;-40
2023/10/19 01:31:56;;;;;;;;;;;;;;;30.85;71.73;101105.00;5040845;28;69882;-41
2023/10/19 01:34:27;;;;;;;;;;;;;;;30.86;71.98;101101.22;5053479;28;65489;-41
2023/10/19 01:36:56;;;;;;;;;;;;;;;30.89;71.52;101106.22;5041293;28;69199;-39
2023/10/19 01:39:26;;;;;;;;;;;;;;;30.91;71.90;101104.13;5044484;28;65995;-40
2023/10/19 01:41:57;;;;;;;;;;;;;;;30.93;71.53;101107.47;5035631;28;69984;-40
2023/10/19 01:44:27;;;;;;;;;;;;;;;30.94;71.30;101109.13;5059901;28;66503;-39
2023/10/19 01:47:00;;;;;;;;;;;;;;;30.97;71.33;101114.09;5039072;28;70118;-39
2023/10/19 01:49:30;;;;;;;;;;;;;;;30.99;71.00;101101.19;5042414;28;66581;-41
2023/10/19 01:52:00;;;;;;;;;;;;;;;31.02;71.16;101105.34;5044266;28;70648;-40
2023/10/19 01:54:30;;;;;;;;;;;;;;;31.02;70.84;101106.16;5056538;28;65974;-39
2023/10/19 01:57:00;;;;;;;;;;;;;;;31.05;70.77;101099.47;5042630;28;69814;-40
2023/10/19 01:59:32;;;;;;;;;;;;;;;31.07;70.96;101103.66;5052846;28;67007;-39
2023/10/19 02:02:02;;;;;;;;;;;;;;;31.09;71.29;101106.97;5046903;28;70334;-39
2023/10/19 02:04:35;;;;;;;;;;;;;;;31.11;70.81;101104.03;5041607;28;66419;-40
2023/10/19 02:07:11;;;;;;;;;;;;;;;31.13;71.05;101102.78;5042615;28;68686;-40
2023/10/19 02:09:42;;;;;;;;;;;;;;;31.17;70.70;101108.56;5031293;28;66523;-40
2023/10/19 02:12:12;;;;;;;;;;;;;;;31.19;70.83;101105.66;5041133;28;70740;-41
2023/10/19 02:14:43;;;;;;;;;;;;;;;31.21;70.39;101101.69;5043968;28;66544;-39
2023/10/19 02:17:14;;;;;;;;;;;;;;;31.23;70.38;101109.59;5040701;28;69858;-39
2023/10/19 02:19:45;;;;;;;;;;;;;;;31.25;70.54;101110.22;5042568;28;66809;-40
2023/10/19 02:22:17;;;;;;;;;;;;;;;31.27;70.41;101102.69;5041568;28;70114;-40
2023/10/19 02:24:46;;;;;;;;;;;;;;;31.29;70.45;101106.03;5040529;28;66619;-40
2023/10/19 02:27:16;;;;;;;;;;;;;;;31.31;70.25;101106.63;5041517;28;70148;-40
2023/10/19 02:30:02;;;;;;;;;;;;;;;31.35;70.23;101107.88;5039725;28;66361;-40
2023/10/19 02:32:33;;;;;;;;;;;;;;;31.36;70.04;101106.84;5041567;28;70603;-40
2023/10/19 02:35:04;;;;;;;;;;;;;;;31.39;69.93;101096.38;5040360;28;66837;-40
2023/10/19 02:37:33;;;;;;;;;;;;;;;31.41;70.10;101101.59;5039945;28;70577;-40
2023/10/19 02:40:12;;;;;;;;;;;;;;;31.43;69.78;101095.97;5040522;28;66851;-40
2023/10/19 02:42:41;;;;;;;;;;;;;;;31.45;69.55;101100.09;5041346;28;70204;-41
2023/10/19 02:45:11;;;;;;;;;;;;;;;31.47;69.41;101087.16;5039975;28;66521;-40
2023/10/19 02:47:44;;;;;;;;;;;;;;;31.50;69.60;101086.72;5035680;28;70167;-40
2023/10/19 02:50:22;;;;;;;;;;;;;;;31.51;69.71;101076.69;5039698;28;65581;-42
2023/10/19 02:52:56;;;;;;;;;;;;;;;31.53;69.35;101078.13;5038979;28;69867;-42
2023/10/19 02:55:26;;;;;;;;;;;;;;;31.55;69.58;101078.75;5039741;28;66756;-40
2023/10/19 02:57:58;;;;;;;;;;;;;;;31.57;69.57;101081.25;5034083;28;70146;-41
2023/10/19 03:00:33;;;;;;;;;;;;;;;31.59;69.29;101074.56;5037018;28;66526;-41
2023/10/19 03:03:05;;;;;;;;;;;;;;;31.61;69.03;101077.03;5040749;28;70639;-40
2023/10/19 03:05:35;;;;;;;;;;;;;;;31.63;69.28;101079.56;5037272;28;66306;-40
2023/10/19 03:08:05;;;;;;;;;;;;;;;31.65;68.97;101078.28;5037493;28;69837;-41
2023/10/19 03:10:41;;;;;;;;;;;;;;;31.68;69.01;101074.25;5036373;28;66331;-40
2023/10/19 03:13:15;;;;;;;;;;;;;;;31.70;68.74;101064.03;5040581;28;70795;-40
2023/10/19 03:15:45;;;;;;;;;;;;;;;31.73;68.66;101069.00;5039319;28;65475;-41
2023/10/19 03:18:15;;;;;;;;;;;;;;;31.74;68.70;101066.09;5037179;28;70549;-41
2023/10/19 03:20:46;;;;;;;;;;;;;;;31.76;68.67;101063.16;5040500;28;66843;-40
2023/10/19 03:23:20;;;;;;;;;;;;;;;31.77;68.81;101054.78;5039371;28;70656;-40
2023/10/19 03:28:43;;;;;;;;;;;;;;;31.80;68.60;101045.38;5053818;28;70764;-40
2023/10/19 03:31:17;;;;;;;;;;;;;;;31.81;68.50;101049.75;5037864;28;68197;-40
2023/10/19 03:33:55;;;;;;;;;;;;;;;31.82;68.48;101046.00;5038002;28;70015;-41
2023/10/19 03:36:25;;;;;;;;;;;;;;;31.85;68.70;101042.03;5051585;28;67100;-40
2023/10/19 03:38:56;;;;;;;;;;;;;;;31.86;68.24;101030.94;5038970;28;70540;-43
2023/10/19 03:41:26;;;;;;;;;;;;;;;31.87;68.28;101037.19;5052786;28;67336;-39
2023/10/19 03:43:57;;;;;;;;;;;;;;;31.88;68.21;101033.44;5038657;28;71175;-40
2023/10/19 03:46:31;;;;;;;;;;;;;;;31.89;68.33;101030.47;5039798;28;66751;-40
2023/10/19 03:49:10;;;;;;;;;;;;;;;31.90;68.28;101025.88;5041420;28;69525;-40
2023/10/19 03:51:57;;;;;;;;;;;;;;;31.91;68.31;101017.56;5034691;28;66459;-40
2023/10/19 03:54:28;;;;;;;;;;;;;;;31.93;68.01;101011.88;5038157;28;70740;-42
2023/10/19 03:57:05;;;;;;;;;;;;;;;31.94;68.00;101005.44;5037698;28;64599;-40
2023/10/19 03:59:37;;;;;;;;;;;;;;;31.93;68.17;100999.19;5036878;28;70648;-40
2023/10/19 04:02:14;;;;;;;;;;;;;;;31.95;68.15;100997.06;5039104;28;66313;-40
2023/10/19 04:04:47;;;;;;;;;;;;;;;31.94;68.11;100995.41;5039637;28;70652;-40
2023/10/19 04:07:21;;;;;;;;;;;;;;;31.97;68.02;100997.66;5028718;28;66830;-41
2023/10/19 04:12:38;;;;;;;;;;;;;;;32.00;67.85;100988.25;5035143;28;66829;-41
2023/10/19 04:17:43;;;;;;;;;;;;;;;32.01;67.92;100982.59;5041439;28;66506;-40
2023/10/19 04:22:58;;;;;;;;;;;;;;;32.03;67.79;100976.94;5042408;28;66468;-40
2023/10/19 04:25:29;;;;;;;;;;;;;;;32.03;67.61;100961.47;5024683;28;70818;-40
2023/10/19 04:28:00;;;;;;;;;;;;;;;32.04;67.74;100968.59;5038810;28;66063;-40
2023/10/19 04:30:33;;;;;;;;;;;;;;;32.05;67.74;100964.81;5040852;28;69773;-50
2023/10/19 04:33:02;;;;;;;;;;;;;;;32.06;67.69;100965.63;5040736;28;66397;-40
2023/10/19 04:35:34;;;;;;;;;;;;;;;32.08;67.67;100962.69;5030636;28;69792;-41
2023/10/19 04:38:06;;;;;;;;;;;;;;;32.08;67.65;100962.69;5029040;28;66273;-40
2023/10/19 04:40:36;;;;;;;;;;;;;;;32.09;67.66;100964.34;5053396;28;70622;-39
2023/10/19 04:43:05;;;;;;;;;;;;;;;32.10;67.59;100957.88;5031119;28;65813;-43
2023/10/19 04:45:39;;;;;;;;;;;;;;;32.10;67.71;100950.56;5040070;28;70058;-41
2023/10/19 04:48:09;;;;;;;;;;;;;;;32.12;67.64;100953.03;5039306;28;66829;-41
2023/10/19 04:50:39;;;;;;;;;;;;;;;32.13;67.77;100955.53;5040386;28;70581;-41
2023/10/19 04:53:10;;;;;;;;;;;;;;;32.13;67.56;100955.53;5038267;28;66428;-41
2023/10/19 04:55:40;;;;;;;;;;;;;;;32.15;67.65;100952.56;5034697;28;69720;-41
2023/10/19 04:58:10;;;;;;;;;;;;;;;32.16;67.54;100949.66;5039377;28;66162;-41
2023/10/19 05:00:41;;;;;;;;;;;;;;;32.16;67.44;100944.22;5041580;28;70758;-41
2023/10/19 05:03:15;;;;;;;;;;;;;;;32.17;67.50;100945.03;5040030;28;65813;-41
2023/10/19 05:05:46;;;;;;;;;;;;;;;32.18;67.39;100946.69;5040171;28;70592;-40
2023/10/19 05:08:15;;;;;;;;;;;;;;;32.19;67.61;100948.38;5040934;28;66607;-39
2023/10/19 05:10:48;;;;;;;;;;;;;;;32.19;67.55;100932.91;5039388;28;69760;-39
2023/10/19 05:13:19;;;;;;;;;;;;;;;32.20;67.53;100923.69;5044357;28;66118;-40
2023/10/19 05:15:56;;;;;;;;;;;;;;;32.20;67.69;100912.84;5043961;28;70334;-40
2023/10/19 05:18:26;;;;;;;;;;;;;;;32.21;67.57;100924.56;5043598;28;65507;-40
2023/10/19 05:20:56;;;;;;;;;;;;;;;32.22;67.41;100920.78;5044193;28;70636;-41
2023/10/19 05:23:27;;;;;;;;;;;;;;;32.22;67.61;100918.88;5038670;28;66612;-39
2023/10/19 05:26:02;;;;;;;;;;;;;;;32.22;67.56;100907.19;5043803;28;69022;-40
2023/10/19 05:28:32;;;;;;;;;;;;;;;32.16;67.55;100902.69;5057945;28;66873;-44
2023/10/19 05:31:04;;;;;;;;;;;;;;;32.21;67.82;100898.22;5043329;28;70445;-42
2023/10/19 05:33:34;;;;;;;;;;;;;;;32.21;67.83;100898.22;5043509;28;66370;-40
2023/10/19 05:36:05;;;;;;;;;;;;;;;32.21;67.75;100892.81;5039630;28;69922;-40
2023/10/19 05:38:34;;;;;;;;;;;;;;;32.21;67.90;100881.94;5038348;28;67236;-40
2023/10/19 05:41:04;;;;;;;;;;;;;;;32.22;67.61;100863.78;5035459;28;70087;-41
2023/10/19 05:43:34;;;;;;;;;;;;;;;32.22;67.64;100855.63;5043569;28;66696;-39
2023/10/19 05:46:04;;;;;;;;;;;;;;;32.22;67.71;100852.91;5042515;28;69507;-40
2023/10/19 05:48:34;;;;;;;;;;;;;;;32.22;67.53;100855.63;5043510;28;66133;-41
2023/10/19 05:51:04;;;;;;;;;;;;;;;32.23;67.77;100846.41;5042051;28;70080;-40
2023/10/19 05:53:33;;;;;;;;;;;;;;;32.22;67.73;100840.16;5036155;28;66959;-40
2023/10/19 05:56:03;;;;;;;;;;;;;;;32.24;67.84;100832.63;5048183;28;70104;-41
2023/10/19 05:58:33;;;;;;;;;;;;;;;32.26;67.63;100821.53;5043138;28;66652;-41
2023/10/19 06:01:05;;;;;;;;;;;;;;;32.26;67.57;100813.38;5040800;28;70173;-41
2023/10/19 06:03:35;;;;;;;;;;;;;;;32.27;67.55;100809.63;5042824;28;66385;-40
2023/10/19 06:06:06;;;;;;;;;;;;;;;32.28;67.58;100795.00;5042520;28;69851;-40
2023/10/19 06:08:36;;;;;;;;;;;;;;;32.30;67.81;100802.91;5042764;28;67195;-40
2023/10/19 06:11:06;;;;;;;;;;;;;;;32.30;67.49;100800.19;5031135;28;68913;-40
2023/10/19 06:13:36;;;;;;;;;;;;;;;32.31;67.60;100793.69;5042665;28;66681;-40
2023/10/19 06:16:06;;;;;;;;;;;;;;;32.32;67.77;100785.34;5043917;28;69747;-39
2023/10/19 06:18:36;;;;;;;;;;;;;;;32.32;67.64;100779.91;5039373;28;66622;-41
2023/10/19 06:21:06;;;;;;;;;;;;;;;32.34;67.61;100777.78;5034045;28;69393;-39
2023/10/19 06:23:36;;;;;;;;;;;;;;;32.35;67.61;100776.72;5039808;28;66616;-40
2023/10/19 06:26:13;;;;;;;;;;;;;;;32.35;67.74;100774.00;5043393;28;70677;-39
2023/10/19 06:28:43;;;;;;;;;;;;;;;32.38;67.79;100767.28;5042789;28;65609;-39
2023/10/19 06:31:14;;;;;;;;;;;;;;;32.39;67.67;100750.75;5041206;28;70527;-40
2023/10/19 06:33:44;;;;;;;;;;;;;;;32.41;67.75;100751.34;5052514;28;66240;-39
2023/10/19 06:36:14;;;;;;;;;;;;;;;32.44;67.72;100745.44;5046413;28;70923;-42
2023/10/19 06:38:44;;;;;;;;;;;;;;;32.46;67.71;100731.69;5049927;28;65660;-40
2023/10/19 06:41:14;;;;;;;;;;;;;;;32.49;67.57;100718.47;5047124;28;70286;-41
2023/10/19 06:43:44;;;;;;;;;;;;;;;32.52;67.69;100708.19;5045512;28;66468;-42
2023/10/19 06:46:14;;;;;;;;;;;;;;;32.54;67.44;100717.75;5044860;28;69817;-40
2023/10/19 06:48:44;;;;;;;;;;;;;;;32.57;67.72;100706.44;5047247;28;65676;-40
2023/10/19 06:51:16;;;;;;;;;;;;;;;32.60;67.98;100705.94;5039565;28;70354;-40
2023/10/19 06:53:46;;;;;;;;;;;;;;;32.62;67.99;100695.66;5045729;28;66096;-42
2023/10/19 06:56:15;;;;;;;;;;;;;;;32.66;67.63;100704.19;5046149;28;69171;-41
2023/10/19 06:58:45;;;;;;;;;;;;;;;32.68;67.82;100699.31;5041404;28;65911;-40
2023/10/19 07:01:16;;;;;;;;;;;;;;;32.71;67.65;100696.16;5038713;28;70340;-39
2023/10/19 07:03:46;;;;;;;;;;;;;;;32.73;67.35;100704.88;5044613;28;66999;-40
2023/10/19 07:06:15;;;;;;;;;;;;;;;32.76;67.46;100703.56;5034684;28;69334;-40
2023/10/19 07:08:46;;;;;;;;;;;;;;;32.77;67.33;100706.06;5041132;28;67095;-40
2023/10/19 07:11:16;;;;;;;;;;;;;;;32.80;67.30;100702.88;5040938;28;70323;-40
2023/10/19 07:13:47;;;;;;;;;;;;;;;32.82;67.17;100702.63;5038530;28;66839;-41
2023/10/19 07:16:18;;;;;;;;;;;;;;;32.83;67.13;100705.09;5040954;28;69809;-40
2023/10/19 07:18:48;;;;;;;;;;;;;;;32.87;67.08;100706.28;5041954;28;66117;-40
2023/10/19 07:21:17;;;;;;;;;;;;;;;32.88;66.94;100702.50;5040801;28;70424;-40
2023/10/19 07:23:49;;;;;;;;;;;;;;;32.91;66.95;100707.47;5039386;28;67124;-41
2023/10/19 07:26:21;;;;;;;;;;;;;;;32.93;66.78;100705.34;5041748;28;69672;-40
2023/10/19 07:28:50;;;;;;;;;;;;;;;32.96;66.82;100697.75;5043884;28;66167;-40
2023/10/19 07:31:21;;;;;;;;;;;;;;;32.97;66.71;100694.00;5044048;28;70169;-41
2023/10/19 07:33:51;;;;;;;;;;;;;;;33.00;66.81;100701.69;5039607;28;66339;-41
2023/10/19 07:36:23;;;;;;;;;;;;;;;33.01;66.70;100698.72;5042073;28;69699;-41
2023/10/19 07:38:53;;;;;;;;;;;;;;;33.04;66.11;100702.84;5041497;28;66569;-40
2023/10/19 07:41:23;;;;;;;;;;;;;;;33.05;66.28;100696.38;5040052;28;69338;-42
2023/10/19 07:43:52;;;;;;;;;;;;;;;33.06;66.28;100703.44;5040758;28;65500;-41
2023/10/19 07:46:22;;;;;;;;;;;;;;;33.07;66.53;100705.09;5041821;28;69264;-40
2023/10/19 07:48:52;;;;;;;;;;;;;;;33.08;66.05;100715.72;5037582;28;66055;-43
2023/10/19 07:51:22;;;;;;;;;;;;;;;33.10;66.08;100720.94;5042770;28;69703;-40
2023/10/19 07:53:52;;;;;;;;;;;;;;;33.10;66.31;100718.22;5041620;28;66580;-40
2023/10/19 07:56:22;;;;;;;;;;;;;;;33.10;66.03;100712.78;5038149;28;69994;-45
2023/10/19 07:58:51;;;;;;;;;;;;;;;33.11;66.23;100712.53;5038935;28;66362;-40
2023/10/19 08:01:22;;;;;;;;;;;;;;;33.12;66.16;100708.75;5038394;28;69653;-40
2023/10/19 08:03:52;;;;;;;;;;;;;;;33.12;66.25;100708.75;5037483;28;66022;-39
2023/10/19 08:06:22;;;;;;;;;;;;;;;33.14;66.02;100727.53;5037402;28;70054;-41
2023/10/19 08:08:52;;;;;;;;;;;;;;;33.14;66.03;100732.97;5039208;28;66511;-40
2023/10/19 08:11:22;;;;;;;;;;;;;;;33.15;65.92;100729.19;5037340;28;70396;-39
2023/10/19 08:13:54;;;;;;;;;;;;;;;33.13;65.91;100721.28;5039371;28;66162;-41
2023/10/19 08:16:28;;;;;;;;;;;;;;;33.15;66.02;100723.75;5038045;28;70706;-40
2023/10/19 08:18:58;;;;;;;;;;;;;;;33.15;66.06;100729.19;5034731;28;67916;-39
2023/10/19 08:21:28;;;;;;;;;;;;;;;33.15;65.85;100721.03;5039498;28;70442;-41
2023/10/19 08:23:58;;;;;;;;;;;;;;;33.13;65.84;100725.91;5039637;28;65790;-40
2023/10/19 08:26:29;;;;;;;;;;;;;;;33.13;66.08;100715.03;5034313;28;71008;-41
2023/10/19 08:29:00;;;;;;;;;;;;;;;33.15;65.89;100723.75;5039679;28;65125;-40
2023/10/19 08:31:31;;;;;;;;;;;;;;;33.14;65.90;100722.09;5038125;28;71067;-40
2023/10/19 08:34:02;;;;;;;;;;;;;;;33.13;66.13;100723.19;5037099;28;67068;-41
2023/10/19 08:36:33;;;;;;;;;;;;;;;33.15;65.91;100731.91;5033435;28;69455;-41
2023/10/19 08:39:05;;;;;;;;;;;;;;;33.12;66.17;100724.22;5039598;28;66101;-41
2023/10/19 08:41:37;;;;;;;;;;;;;;;33.11;66.20;100723.41;5039249;28;69882;-40
2023/10/19 08:44:10;;;;;;;;;;;;;;;33.11;66.19;100717.16;5039335;28;65526;-40
2023/10/19 08:46:43;;;;;;;;;;;;;;;33.12;65.86;100719.59;5039857;28;70242;-39
2023/10/19 08:49:14;;;;;;;;;;;;;;;33.11;66.22;100722.59;5043122;28;66280;-39
2023/10/19 08:51:45;;;;;;;;;;;;;;;33.10;66.18;100723.66;5042911;28;70379;-42
2023/10/19 08:54:16;;;;;;;;;;;;;;;33.11;65.97;100725.31;5039988;28;66062;-41
2023/10/19 08:56:47;;;;;;;;;;;;;;;33.09;65.83;100728.25;5041486;28;70250;-41
2023/10/19 08:59:17;;;;;;;;;;;;;;;33.10;66.35;100729.09;5043216;28;66503;-41
2023/10/19 09:01:46;;;;;;;;;;;;;;;33.09;66.08;100719.28;5040778;28;70040;-41
2023/10/19 09:04:16;;;;;;;;;;;;;;;33.06;66.21;100720.56;5041066;28;66658;-41
2023/10/19 09:06:48;;;;;;;;;;;;;;;33.07;66.23;100721.38;5045153;28;69831;-41
2023/10/19 09:09:19;;;;;;;;;;;;;;;33.06;66.01;100714.31;5032291;28;66228;-43
2023/10/19 09:11:49;;;;;;;;;;;;;;;33.07;65.96;100715.97;5044875;28;69172;-40
2023/10/19 09:14:43;;;;;;;;;;;;;;;33.06;66.20;100715.13;5041555;28;66575;-39
2023/10/19 09:17:13;;;;;;;;;;;;;;;33.05;66.46;100712.69;5042459;28;70520;-41
2023/10/19 09:19:44;;;;;;;;;;;;;;;33.06;66.07;100727.91;5044111;28;65145;-42
2023/10/19 09:22:22;;;;;;;;;;;;;;;33.04;66.45;100727.31;5041382;28;70407;-41
2023/10/19 09:24:55;;;;;;;;;;;;;;;32.68;69.14;100721.03;5043600;28;66989;-41
2023/10/19 09:27:26;;;;;;;;;;;;;;;32.54;70.59;100716.91;5040847;28;70746;-41
2023/10/19 09:29:56;;;;;;;;;;;;;;;32.47;70.87;100717.88;5042143;28;66489;-45
2023/10/19 09:32:27;;;;;;;;;;;;;;;32.40;71.40;100727.13;5039457;28;68928;-41
2023/10/19 09:34:58;;;;;;;;;;;;;;;32.36;71.84;100715.13;5041689;28;66680;-41
2023/10/19 09:37:40;;;;;;;;;;;;;;;32.33;72.08;100724.53;5042446;28;70006;-41
2023/10/19 09:40:30;;;;;;;;;;;;;;;32.27;72.48;100726.31;5040773;28;66056;-41
2023/10/19 09:43:06;;;;;;;;;;;;;;;32.25;72.83;100724.88;5041745;28;70431;-42
2023/10/19 09:45:41;;;;;;;;;;;;;;;32.25;73.14;100730.31;5040750;28;66749;-41
2023/10/19 09:48:16;;;;;;;;;;;;;;;32.27;73.71;100733.63;5040314;28;69405;-42
2023/10/19 09:50:58;;;;;;;;;;;;;;;32.26;74.22;100729.25;5041273;28;68413;-42
2023/10/19 09:53:28;;;;;;;;;;;;;;;32.26;74.05;100737.38;5041942;28;70620;-40
2023/10/19 09:55:59;;;;;;;;;;;;;;;32.26;74.09;100742.81;5041935;28;66233;-41
2023/10/19 09:58:33;;;;;;;;;;;;;;;32.23;73.95;100748.72;5040186;28;69823;-41
2023/10/19 10:01:04;;;;;;;;;;;;;;;32.24;73.87;100750.38;5038718;28;65484;-40
2023/10/19 10:03:44;;;;;;;;;;;;;;;32.24;74.11;100753.09;5038371;28;71180;-40
2023/10/19 10:06:15;;;;;;;;;;;;;;;32.23;74.24;100751.44;5041544;28;66323;-42
2023/10/19 10:08:45;;;;;;;;;;;;;;;32.23;74.16;100754.13;5037618;28;70356;-41
2023/10/19 10:11:21;;;;;;;;;;;;;;;32.23;74.22;100765.00;5038224;28;66580;-40
2023/10/19 10:13:51;;;;;;;;;;;;;;;32.22;74.42;100774.22;5042314;28;69843;-41
2023/10/19 10:16:25;;;;;;;;;;;;;;;32.21;74.35;100781.53;5039140;28;67096;-43
2023/10/19 10:19:01;;;;;;;;;;;;;;;32.21;74.58;100788.84;5040419;28;70799;-42
2023/10/19 10:21:33;;;;;;;;;;;;;;;32.21;74.80;100789.66;5036430;28;67035;-44
2023/10/19 10:24:04;;;;;;;;;;;;;;;32.19;74.90;100797.22;5038375;28;69468;-42
2023/10/19 10:26:54;;;;;;;;;;;;;;;32.21;74.88;100805.13;5041737;28;66118;-43
2023/10/19 10:29:24;;;;;;;;;;;;;;;32.21;75.10;100802.41;5043751;28;70481;-42
2023/10/19 10:31:54;;;;;;;;;;;;;;;32.17;75.36;100803.94;5040845;28;67127;-45
2023/10/19 10:34:45;;;;;;;;;;;;;;;32.18;75.57;100805.56;5057352;28;69820;-42
2023/10/19 10:37:15;;;;;;;;;;;;;;;32.18;75.44;100806.41;5038637;28;65991;-42
2023/10/19 10:39:45;;;;;;;;;;;;;;;32.18;75.86;100816.44;5042002;28;70727;-43
2023/10/19 10:42:26;;;;;;;;;;;;;;;32.19;75.83;100818.09;5053667;28;67195;-42
2023/10/19 10:44:56;;;;;;;;;;;;;;;32.18;75.87;100832.72;5038022;28;70601;-40
2023/10/19 10:47:29;;;;;;;;;;;;;;;32.18;75.82;100833.56;5033741;28;66233;-40
2023/10/19 10:50:00;;;;;;;;;;;;;;;32.19;76.36;100837.09;5040299;28;69904;-42
2023/10/19 10:52:32;;;;;;;;;;;;;;;32.19;76.18;100840.63;5040615;28;66403;-41
2023/10/19 10:55:12;;;;;;;;;;;;;;;32.18;76.33;100840.84;5040476;28;69442;-44
2023/10/19 10:57:44;;;;;;;;;;;;;;;32.18;76.08;100849.00;5038141;28;65670;-42
2023/10/19 11:00:15;;;;;;;;;;;;;;;32.16;76.14;100848.41;5040054;28;70730;-44
2023/10/19 11:02:59;;;;;;;;;;;;;;;32.15;76.09;100846.75;5038976;28;67062;-42
2023/10/19 11:05:30;;;;;;;;;;;;;;;32.13;76.20;100844.28;5041451;28;69956;-42
2023/10/19 11:08:07;;;;;;;;;;;;;;;32.12;76.37;100847.19;5038808;28;66878;-42
2023/10/19 11:10:37;;;;;;;;;;;;;;;32.13;76.85;100846.16;5027563;28;70677;-40
2023/10/19 11:13:07;;;;;;;;;;;;;;;32.12;77.15;100845.31;5041572;28;66502;-44
2023/10/19 11:15:38;;;;;;;;;;;;;;;32.12;77.18;100844.50;5040144;28;69816;-44
2023/10/19 11:18:08;;;;;;;;;;;;;;;32.09;77.25;100850.38;5041881;28;67697;-42
2023/10/19 11:20:37;;;;;;;;;;;;;;;32.10;77.07;100852.06;5040042;28;70274;-42
2023/10/19 11:23:09;;;;;;;;;;;;;;;32.09;76.89;100845.78;5039266;28;66584;-46
2023/10/19 11:25:39;;;;;;;;;;;;;;;31.79;77.41;100799.63;5038505;28;69292;-42
2023/10/19 11:28:18;;;;;;;;;;;;;;;32.11;77.63;100853.69;5038667;28;66662;-43
2023/10/19 11:30:48;;;;;;;;;;;;;;;32.14;77.64;100853.25;5037973;28;70034;-43
2023/10/19 11:33:21;;;;;;;;;;;;;;;32.12;77.98;100860.78;5040759;28;66038;-40
2023/10/19 11:35:52;;;;;;;;;;;;;;;32.20;77.42;100869.41;5055245;28;70161;-43
2023/10/19 11:38:22;;;;;;;;;;;;;;;32.30;76.65;100874.31;5041262;28;66046;-42
2023/10/19 11:40:52;;;;;;;;;;;;;;;32.36;75.89;100878.81;5039437;28;69194;-42
2023/10/19 11:43:22;;;;;;;;;;;;;;;32.42;75.32;100887.91;5038416;28;66438;-43
2023/10/19 11:45:52;;;;;;;;;;;;;;;32.45;75.01;100893.72;5036473;28;69161;-43
2023/10/19 11:48:22;;;;;;;;;;;;;;;32.48;74.65;100892.44;5040998;28;67043;-43
2023/10/19 11:50:53;;;;;;;;;;;;;;;32.51;74.37;100902.03;5040350;28;70861;-44
2023/10/19 11:53:23;;;;;;;;;;;;;;;32.53;74.24;100910.78;5045842;28;65871;-45
2023/10/19 11:55:53;;;;;;;;;;;;;;;32.54;73.92;100912.41;5039387;28;69600;-42
2023/10/19 11:58:23;;;;;;;;;;;;;;;32.54;74.11;100915.13;5040767;28;67035;-43
2023/10/19 12:00:54;;;;;;;;;;;;;;;32.56;73.90;100921.19;5041056;28;69669;-42
2023/10/19 12:03:25;;;;;;;;;;;;;;;32.57;73.71;100923.66;5039982;28;67280;-47
2023/10/19 12:05:55;;;;;;;;;;;;;;;32.57;73.61;100922.81;5038873;28;70226;-41
2023/10/19 12:08:26;;;;;;;;;;;;;;;32.59;73.38;100923.44;5041163;28;66081;-42
2023/10/19 12:10:55;;;;;;;;;;;;;;;32.58;73.51;100929.94;5040891;28;70743;-42
2023/10/19 12:13:25;;;;;;;;;;;;;;;32.58;73.35;100933.47;5038857;28;66163;-42
2023/10/19 12:15:55;;;;;;;;;;;;;;;32.59;73.02;100945.16;5040076;28;70381;-42
2023/10/19 12:18:28;;;;;;;;;;;;;;;32.58;73.15;100940.78;5047650;28;66678;-42
2023/10/19 12:20:59;;;;;;;;;;;;;;;32.57;73.07;100945.41;5039633;28;69945;-42
2023/10/19 12:26:25;;;;;;;;;;;;;;;32.56;72.99;100935.56;5039583;28;68110;-43
2023/10/19 12:28:55;;;;;;;;;;;;;;;32.56;72.96;100934.75;5037187;28;65437;-42
2023/10/19 12:31:25;;;;;;;;;;;;;;;32.55;72.74;100928.50;5038051;28;70489;-42
2023/10/19 12:33:56;;;;;;;;;;;;;;;32.55;72.99;100924.97;5039519;28;67004;-41
2023/10/19 12:38:55;;;;;;;;;;;;;;;32.54;72.97;100934.16;5038002;28;66455;-41
2023/10/19 12:41:25;;;;;;;;;;;;;;;32.51;72.89;100943.59;5038697;28;70692;-43
2023/10/19 12:43:57;;;;;;;;;;;;;;;32.52;72.96;100955.28;5040523;28;66914;-42
2023/10/19 12:46:29;;;;;;;;;;;;;;;32.50;73.08;100944.66;5036080;28;70083;-42
2023/10/19 12:48:59;;;;;;;;;;;;;;;32.49;72.85;100957.41;5039047;28;65321;-43
2023/10/19 12:51:29;;;;;;;;;;;;;;;32.48;72.94;100963.06;5039530;28;69826;-41
2023/10/19 12:54:03;;;;;;;;;;;;;;;32.46;72.84;100971.44;5038749;28;66295;-42
2023/10/19 12:56:35;;;;;;;;;;;;;;;32.45;73.01;100975.16;5038448;28;69921;-44
2023/10/19 12:59:06;;;;;;;;;;;;;;;32.44;72.79;100976.22;5029998;28;65357;-42
2023/10/19 13:01:36;;;;;;;;;;;;;;;32.44;72.92;100965.38;5040422;28;69636;-43
2023/10/19 13:04:18;;;;;;;;;;;;;;;32.43;72.95;100971.88;5040656;28;65737;-42
2023/10/19 13:06:48;;;;;;;;;;;;;;;32.41;72.85;100971.25;5029456;28;69851;-43
2023/10/19 13:09:30;;;;;;;;;;;;;;;32.40;72.91;100972.34;5040081;28;66842;-47
2023/10/19 13:12:00;;;;;;;;;;;;;;;32.39;72.89;100969.84;5039973;28;70817;-42
2023/10/19 13:14:30;;;;;;;;;;;;;;;32.38;73.01;100974.44;5038321;28;66237;-42
2023/10/19 13:17:00;;;;;;;;;;;;;;;32.37;72.73;100978.19;5035987;28;70132;-41
2023/10/19 13:19:30;;;;;;;;;;;;;;;32.38;72.90;100989.91;5039731;28;66172;-43